Time,TemperatureF,DewpointF,PressureIn,WindDirection,WindDirectionDegrees,WindSpeedMPH,WindSpeedGustMPH,Humidity,HourlyPrecipIn,Conditions,Clouds,dailyrainin,SoftwareType,DateUTC
2013-02-16 00:05:00,47.1,41.0,29.79,WSW,249,7.0,15.0,79,0.00,,,0.00,weatherlink.com 1.10,2013-02-16 00:05:00,
2013-02-16 00:20:00,45.2,38.0,29.79,SSE,156,2.0,6.0,75,0.00,,,0.00,weatherlink.com 1.10,2013-02-16 00:20:00,
2013-02-16 00:35:00,43.7,38.0,29.79,SW,222,3.0,6.0,79,0.00,,,0.00,weatherlink.com 1.10,2013-02-16 00:35:00,
2013-02-16 00:50:00,42.7,37.0,29.79,SE,134,1.0,3.0,81,0.00,,,0.00,weatherlink.com 1.10,2013-02-16 00:50:00,
2013-02-16 01:20:00,42.9,38.0,29.79,North,360,0.0,0.0,82,0.00,,,0.00,weatherlink.com 1.10,2013-02-16 01:20:00,
2013-02-16 01:35:00,43.3,38.0,29.79,North,358,0.0,0.0,81,0.00,,,0.00,weatherlink.com 1.10,2013-02-16 01:35:00,
2013-02-16 01:50:00,43.6,38.0,29.78,NE,43,0.0,1.0,81,0.00,,,0.00,weatherlink.com 1.10,2013-02-16 01:50:00,
2013-02-16 02:05:00,44.1,39.0,29.78,South,190,1.0,2.0,81,0.00,,,0.00,weatherlink.com 1.10,2013-02-16 02:05:00,
2013-02-16 02:20:00,43.7,38.0,29.78,ESE,117,1.0,5.0,81,0.00,,,0.00,weatherlink.com 1.10,2013-02-16 02:20:00,
2013-02-16 02:35:00,43.3,38.0,29.78,SSE,160,2.0,3.0,82,0.00,,,0.00,weatherlink.com 1.10,2013-02-16 02:35:00,
2013-02-16 02:50:00,43.1,38.0,29.77,NNE,15,0.0,4.0,83,0.00,,,0.00,weatherlink.com 1.10,2013-02-16 02:50:00,
2013-02-16 03:05:00,43.7,39.0,29.77,East,95,3.0,6.0,83,0.00,,,0.00,weatherlink.com 1.10,2013-02-16 03:05:00,
2013-02-16 03:20:00,44.7,41.0,29.77,SSE,148,2.0,4.0,85,0.00,,,0.00,weatherlink.com 1.10,2013-02-16 03:20:00,
2013-02-16 03:35:00,46.1,40.0,29.77,ESE,123,5.0,9.0,78,0.00,,,0.00,weatherlink.com 1.10,2013-02-16 03:35:00,
2013-02-16 03:50:00,45.1,39.0,29.76,ESE,115,4.0,4.0,80,0.00,,,0.00,weatherlink.com 1.10,2013-02-16 03:50:00,
2013-02-16 04:05:00,44.7,39.0,29.77,NNE,22,4.0,6.0,81,0.00,,,0.00,weatherlink.com 1.10,2013-02-16 04:05:00,
2013-02-16 04:20:00,44.6,39.0,29.76,SE,135,2.0,5.0,82,0.00,,,0.00,weatherlink.com 1.10,2013-02-16 04:20:00,
2013-02-16 04:35:00,44.3,39.0,29.76,SE,134,2.0,3.0,83,0.00,,,0.00,weatherlink.com 1.10,2013-02-16 04:35:00,
2013-02-16 04:50:00,-999.0,-99.9,29.76,North,-999,-999.0,-999.0,-999,0.00,,,0.00,weatherlink.com 1.10,2013-02-16 04:50:00,
2013-02-16 05:05:00,-999.0,-99.9,29.76,North,-999,-999.0,-999.0,-999,0.00,,,0.00,weatherlink.com 1.10,2013-02-16 05:05:00,
2013-02-16 05:20:00,-999.0,-99.9,29.77,North,-999,-999.0,-999.0,-999,0.00,,,0.00,weatherlink.com 1.10,2013-02-16 05:20:00,
2013-02-16 05:35:00,-999.0,-99.9,29.76,North,-999,-999.0,-999.0,-999,0.00,,,0.00,weatherlink.com 1.10,2013-02-16 05:35:00,
2013-02-16 05:50:00,-999.0,-99.9,29.77,North,-999,-999.0,-999.0,-999,0.00,,,0.00,weatherlink.com 1.10,2013-02-16 05:50:00,
2013-02-16 06:05:00,-999.0,-99.9,29.77,North,-999,-999.0,-999.0,-999,0.00,,,0.00,weatherlink.com 1.10,2013-02-16 06:05:00,
2013-02-16 06:21:00,-999.0,-99.9,29.77,North,-999,-999.0,-999.0,-999,0.00,,,0.00,weatherlink.com 1.10,2013-02-16 06:21:00,
2013-02-16 06:36:00,-999.0,-99.9,29.77,North,-999,-999.0,-999.0,-999,0.00,,,0.00,weatherlink.com 1.10,2013-02-16 06:36:00,
2013-02-16 06:51:00,-999.0,-99.9,29.77,North,-999,-999.0,-999.0,-999,0.00,,,0.00,weatherlink.com 1.10,2013-02-16 06:51:00,
2013-02-16 07:06:00,-999.0,-99.9,29.77,North,-999,-999.0,-999.0,-999,0.00,,,0.00,weatherlink.com 1.10,2013-02-16 07:06:00,
2013-02-16 07:21:00,-999.0,-99.9,29.77,North,-999,-999.0,-999.0,-999,0.00,,,0.00,weatherlink.com 1.10,2013-02-16 07:21:00,
2013-02-16 07:36:00,-999.0,-99.9,29.77,North,-999,-999.0,-999.0,-999,0.00,,,0.00,weatherlink.com 1.10,2013-02-16 07:36:00,
2013-02-16 07:51:00,-999.0,-99.9,29.77,North,-999,-999.0,-999.0,-999,0.00,,,0.00,weatherlink.com 1.10,2013-02-16 07:51:00,
2013-02-16 08:06:00,-999.0,-99.9,29.77,North,-999,-999.0,-999.0,-999,0.00,,,0.00,weatherlink.com 1.10,2013-02-16 08:06:00,
2013-02-16 08:21:00,-999.0,-99.9,29.78,North,-999,-999.0,-999.0,-999,0.00,,,0.00,weatherlink.com 1.10,2013-02-16 08:21:00,
2013-02-16 08:36:00,-999.0,-99.9,29.78,North,-999,-999.0,-999.0,-999,0.00,,,0.00,weatherlink.com 1.10,2013-02-16 08:36:00,
2013-02-16 08:51:00,-999.0,-99.9,29.78,North,-999,-999.0,-999.0,-999,0.00,,,0.00,weatherlink.com 1.10,2013-02-16 08:51:00,
2013-02-16 09:06:00,-999.0,-99.9,29.78,North,-999,-999.0,-999.0,-999,0.00,,,0.00,weatherlink.com 1.10,2013-02-16 09:06:00,
2013-02-16 09:21:00,46.9,44.0,29.78,SE,133,1.0,6.0,90,0.00,,,0.00,weatherlink.com 1.10,2013-02-16 09:21:00,
2013-02-16 09:36:00,46.9,45.0,29.78,SSE,150,3.0,4.0,92,0.00,,,0.00,weatherlink.com 1.10,2013-02-16 09:36:00,
2013-02-16 09:51:00,47.2,45.0,29.78,East,84,4.0,5.0,92,0.00,,,0.00,weatherlink.com 1.10,2013-02-16 09:51:00,
2013-02-16 10:06:00,47.9,46.0,29.78,SSE,150,0.0,3.0,92,0.00,,,0.00,weatherlink.com 1.10,2013-02-16 10:06:00,
2013-02-16 10:21:00,47.7,46.0,29.78,SE,126,1.0,3.0,92,0.00,,,0.00,weatherlink.com 1.10,2013-02-16 10:21:00,
2013-02-16 10:36:00,48.8,47.0,29.78,ENE,61,1.0,2.0,93,0.00,,,0.00,weatherlink.com 1.10,2013-02-16 10:36:00,
2013-02-16 10:52:00,50.2,48.0,29.78,East,95,0.0,1.0,91,0.00,,,0.00,weatherlink.com 1.10,2013-02-16 10:52:00,
2013-02-16 11:07:00,50.1,47.0,29.78,NE,44,3.0,4.0,89,0.00,,,0.00,weatherlink.com 1.10,2013-02-16 11:07:00,
2013-02-16 11:22:00,50.4,48.0,29.78,East,98,2.0,3.0,90,0.00,,,0.00,weatherlink.com 1.10,2013-02-16 11:22:00,
2013-02-16 11:37:00,50.4,47.0,29.78,SE,140,1.0,5.0,88,0.00,,,0.00,weatherlink.com 1.10,2013-02-16 11:37:00,
2013-02-16 11:52:00,50.8,47.0,29.78,SE,128,3.0,4.0,87,0.00,,,0.00,weatherlink.com 1.10,2013-02-16 11:52:00,
2013-02-16 12:07:00,50.8,47.0,29.77,ESE,103,4.0,4.0,88,0.00,,,0.00,weatherlink.com 1.10,2013-02-16 12:07:00,
2013-02-16 12:22:00,51.0,47.0,29.76,SE,145,3.0,6.0,87,0.00,,,0.00,weatherlink.com 1.10,2013-02-16 12:22:00,
2013-02-16 12:37:00,51.8,48.0,29.76,ESE,114,7.0,8.0,87,0.00,,,0.00,weatherlink.com 1.10,2013-02-16 12:37:00,
2013-02-16 12:52:00,53.6,48.0,29.75,SSE,165,11.0,14.0,80,0.00,,,0.00,weatherlink.com 1.10,2013-02-16 12:52:00,
2013-02-16 13:07:00,53.7,47.0,29.75,SSW,208,11.0,16.0,77,0.00,,,0.00,weatherlink.com 1.10,2013-02-16 13:07:00,
2013-02-16 13:22:00,53.5,46.0,29.74,WSW,243,8.0,14.0,77,0.00,,,0.00,weatherlink.com 1.10,2013-02-16 13:22:00,
2013-02-16 13:37:00,53.0,46.0,29.74,East,97,1.0,14.0,78,0.00,,,0.00,weatherlink.com 1.10,2013-02-16 13:37:00,
2013-02-16 13:52:00,52.9,46.0,29.74,SSE,159,3.0,19.0,78,0.00,,,0.00,weatherlink.com 1.10,2013-02-16 13:52:00,
2013-02-16 14:07:00,52.5,46.0,29.73,SSE,165,4.0,20.0,79,0.00,,,0.00,weatherlink.com 1.10,2013-02-16 14:07:00,
2013-02-16 14:22:00,53.1,46.0,29.73,WSW,245,8.0,12.0,78,0.00,,,0.00,weatherlink.com 1.10,2013-02-16 14:22:00,
2013-02-16 14:37:00,53.1,46.0,29.73,WSW,238,8.0,12.0,78,0.00,,,0.00,weatherlink.com 1.10,2013-02-16 14:37:00,
2013-02-16 14:52:00,52.2,46.0,29.73,SW,228,12.0,20.0,79,0.00,,,0.00,weatherlink.com 1.10,2013-02-16 14:52:00,
2013-02-16 15:07:00,51.9,46.0,29.73,SW,218,7.0,21.0,79,0.00,,,0.00,weatherlink.com 1.10,2013-02-16 15:07:00,
2013-02-16 15:22:00,51.4,45.0,29.73,WSW,240,11.0,22.0,80,0.00,,,0.00,weatherlink.com 1.10,2013-02-16 15:22:00,
2013-02-16 15:37:00,50.9,45.0,29.73,West,269,7.0,22.0,81,0.00,,,0.00,weatherlink.com 1.10,2013-02-16 15:37:00,
2013-02-16 15:52:00,50.9,45.0,29.73,WSW,250,11.0,19.0,79,0.00,,,0.00,weatherlink.com 1.10,2013-02-16 15:52:00,
2013-02-16 16:08:00,50.8,45.0,29.73,WSW,249,10.0,19.0,79,0.00,,,0.00,weatherlink.com 1.10,2013-02-16 16:08:00,
2013-02-16 16:22:00,50.4,44.0,29.72,SSW,205,23.0,23.0,78,0.00,,,0.00,weatherlink.com 1.10,2013-02-16 16:22:00,
2013-02-16 16:37:00,49.9,44.0,29.72,SW,222,10.0,23.0,79,0.00,,,0.00,weatherlink.com 1.10,2013-02-16 16:37:00,
2013-02-16 16:52:00,49.1,44.0,29.72,SW,228,17.0,24.0,81,0.00,,,0.00,weatherlink.com 1.10,2013-02-16 16:52:00,
2013-02-16 17:07:00,48.6,43.0,29.72,SW,224,23.0,27.0,81,0.00,,,0.00,weatherlink.com 1.10,2013-02-16 17:07:00,
2013-02-16 17:22:00,48.3,43.0,29.73,West,266,16.0,27.0,81,0.00,,,0.00,weatherlink.com 1.10,2013-02-16 17:22:00,
2013-02-16 17:37:00,47.9,42.0,29.72,SW,226,23.0,25.0,80,0.00,,,0.00,weatherlink.com 1.10,2013-02-16 17:37:00,
2013-02-16 17:52:00,47.5,42.0,29.72,WSW,243,10.0,25.0,80,0.00,,,0.00,weatherlink.com 1.10,2013-02-16 17:52:00,
2013-02-16 18:07:00,47.2,41.0,29.73,WSW,239,9.0,24.0,80,0.00,,,0.00,weatherlink.com 1.10,2013-02-16 18:07:00,
2013-02-16 18:23:00,47.2,41.0,29.73,WSW,243,15.0,29.0,79,0.00,,,0.00,weatherlink.com 1.10,2013-02-16 18:23:00,
2013-02-16 18:38:00,47.2,41.0,29.73,WSW,243,20.0,30.0,80,0.00,,,0.00,weatherlink.com 1.10,2013-02-16 18:38:00,
2013-02-16 18:53:00,46.9,41.0,29.74,West,267,8.0,26.0,81,0.00,,,0.00,weatherlink.com 1.10,2013-02-16 18:53:00,
2013-02-16 19:08:00,46.9,42.0,29.74,WNW,285,13.0,23.0,82,0.00,,,0.00,weatherlink.com 1.10,2013-02-16 19:08:00,
2013-02-16 19:23:00,46.8,42.0,29.74,SSW,202,5.0,25.0,83,0.00,,,0.00,weatherlink.com 1.10,2013-02-16 19:23:00,
2013-02-16 19:38:00,46.8,42.0,29.74,SW,227,9.0,25.0,83,0.00,,,0.00,weatherlink.com 1.10,2013-02-16 19:38:00,
2013-02-16 19:53:00,46.8,42.0,29.74,SW,219,10.0,19.0,82,0.00,,,0.00,weatherlink.com 1.10,2013-02-16 19:53:00,
2013-02-16 20:08:00,46.8,42.0,29.74,South,184,2.0,16.0,83,0.00,,,0.00,weatherlink.com 1.10,2013-02-16 20:08:00,
2013-02-16 20:23:00,46.6,42.0,29.75,South,177,7.0,9.0,84,0.00,,,0.00,weatherlink.com 1.10,2013-02-16 20:23:00,
2013-02-16 20:38:00,46.6,42.0,29.75,SSE,153,4.0,12.0,83,0.00,,,0.00,weatherlink.com 1.10,2013-02-16 20:38:00,
2013-02-16 20:53:00,46.6,41.0,29.75,South,184,5.0,11.0,82,0.00,,,0.00,weatherlink.com 1.10,2013-02-16 20:53:00,
2013-02-16 21:08:00,46.7,42.0,29.75,SSE,160,1.0,13.0,82,0.00,,,0.00,weatherlink.com 1.10,2013-02-16 21:08:00,
2013-02-16 21:23:00,46.8,42.0,29.75,SSW,210,2.0,12.0,82,0.00,,,0.00,weatherlink.com 1.10,2013-02-16 21:23:00,
2013-02-16 21:38:00,46.8,42.0,29.75,SSE,157,0.0,6.0,82,0.00,,,0.00,weatherlink.com 1.10,2013-02-16 21:38:00,
2013-02-16 21:53:00,46.8,41.0,29.75,SW,217,5.0,8.0,81,0.00,,,0.00,weatherlink.com 1.10,2013-02-16 21:53:00,
2013-02-16 22:08:00,46.7,41.0,29.74,SSE,148,5.0,9.0,81,0.00,,,0.00,weatherlink.com 1.10,2013-02-16 22:08:00,
2013-02-16 22:23:00,46.7,41.0,29.75,SSW,212,5.0,13.0,81,0.00,,,0.00,weatherlink.com 1.10,2013-02-16 22:23:00,
2013-02-16 22:38:00,46.6,41.0,29.74,SSW,203,8.0,15.0,81,0.00,,,0.00,weatherlink.com 1.10,2013-02-16 22:38:00,
2013-02-16 22:53:00,46.8,41.0,29.73,WSW,242,8.0,20.0,79,0.00,,,0.00,weatherlink.com 1.10,2013-02-16 22:53:00,
2013-02-16 23:08:00,46.9,41.0,29.73,South,184,11.0,21.0,79,0.00,,,0.00,weatherlink.com 1.10,2013-02-16 23:08:00,
2013-02-16 23:23:00,46.8,41.0,29.73,South,169,2.0,20.0,79,0.00,,,0.00,weatherlink.com 1.10,2013-02-16 23:23:00,
2013-02-16 23:38:00,46.7,41.0,29.73,SE,139,8.0,13.0,80,0.00,,,0.00,weatherlink.com 1.10,2013-02-16 23:38:00,
2013-02-16 23:53:00,46.7,41.0,29.73,SSE,160,6.0,18.0,80,0.00,,,0.00,weatherlink.com 1.10,2013-02-16 23:53:00,